Main page
METAR-TAF:

METAR-TAF

Airports :

Florence Airport

Florence, Italy

latitude: 43-48N, longitude: 011-12E, elevation: 40 m

Current weather observation

The report was made 39 minutes ago, at 01:20 UTC
Wind 5 kt from the South/Southwest
Temperature 6°C
Humidity 65%
Pressure 1011 hPa
Visibility 10 km or more
no clouds below 1500 m and no cumulonimbus

METAR: LIRQ 190120Z 20005KT CAVOK 06/M00 Q1011

Time: 02:59 (01:59 UTC)

Forecast

The report was made 2 hours and 59 minutes ago, at 23:00 UTC
Forecast valid from 19 at 00 UTC to 19 at 24 UTC
Wind 7 kt from the Northeast
Visibility 10 km or more
Scattered clouds at a height of 6000 ft
Temporary
from 19 at 15 UTC to 19 at 24 UTC
rain

TAF: LIRQ 182300Z 1900/1924 04007KT 9999 SCT060 TEMPO 1915/1924 RA

Weather observations and forecasts of more than 4000 airports (METAR and TAF reports).

The available stations are represented by yellow and red dots on the map.

Hover mouse over dot to see the name of the station.

Then click to see weather observations and forecasts.

To change the map : click on the green buttons with a black cross to zoom in, on the green button with a dash to zoom out, or on the green arrows for adjacent maps.


METAR-TAF: